Time;durP1;ratioP1;P1;durP2;ratioP2;P2;SDS_P1;SDS_P2;PMS_P1;PMS_P2;Temp;Humidity;BMP_temperature;BMP_pressure;BME280_temperature;BME280_humidity;BME280_pressure;Samples;Min_cycle;Max_cycle;Signal;HPM_P1;HPM_P2
2022/11/01 00:00:05;;;;;;;18.63;13.03;;;14.60;41.90;;;;;;5069391;28;20169;-75
2022/11/01 00:02:31;;;;;;;20.67;12.10;;;14.60;41.80;;;;;;5067566;28;20192;-75
2022/11/01 00:04:56;;;;;;;14.53;11.40;;;14.60;41.80;;;;;;5060593;28;20441;-74
2022/11/01 00:07:22;;;;;;;25.60;13.63;;;14.60;41.80;;;;;;5067460;28;20176;-73
2022/11/01 00:09:47;;;;;;;22.00;13.07;;;14.80;38.10;;;;;;5070879;28;20195;-74
2022/11/01 00:12:13;;;;;;;17.87;12.83;;;14.60;36.30;;;;;;5076413;28;20192;-74
2022/11/01 00:14:39;;;;;;;22.40;12.43;;;14.60;37.10;;;;;;5088257;28;20184;-74
2022/11/01 00:17:04;;;;;;;22.23;11.70;;;14.60;31.00;;;;;;5071544;28;20177;-75
2022/11/01 00:19:30;;;;;;;23.23;12.50;;;14.50;29.00;;;;;;5066606;28;20178;-75
2022/11/01 00:21:55;;;;;;;20.53;13.20;;;14.40;33.90;;;;;;5063994;28;20629;-74
2022/11/01 00:24:21;;;;;;;18.97;13.40;;;14.30;36.90;;;;;;5064896;28;20682;-75
2022/11/01 00:26:46;;;;;;;25.20;13.20;;;14.30;41.40;;;;;;5068620;28;20181;-75
2022/11/01 00:29:12;;;;;;;17.57;13.90;;;14.30;41.70;;;;;;5065598;28;20173;-75
2022/11/01 00:31:38;;;;;;;24.33;13.03;;;14.30;41.50;;;;;;5059384;28;20184;-75
2022/11/01 00:34:05;;;;;;;20.03;13.07;;;14.20;41.50;;;;;;5061257;28;20176;-75
2022/11/01 00:36:32;;;;;;;25.43;12.67;;;14.30;41.50;;;;;;5063531;28;20193;-75
2022/11/01 00:38:57;;;;;;;22.40;12.30;;;14.30;41.50;;;;;;5061084;28;20480;-73
2022/11/01 00:41:22;;;;;;;17.03;11.30;;;14.70;41.90;;;;;;5068210;28;20422;-75
2022/11/01 00:43:48;;;;;;;18.17;12.37;;;14.40;41.70;;;;;;5069952;28;20200;-74
2022/11/01 00:46:14;;;;;;;21.97;12.67;;;14.40;41.60;;;;;;5069075;28;20234;-75
2022/11/01 00:48:39;;;;;;;22.63;13.47;;;14.40;41.80;;;;;;5061949;28;20242;-77
2022/11/01 00:51:05;;;;;;;18.43;12.10;;;14.50;41.70;;;;;;5068933;28;20187;-74
2022/11/01 00:53:30;;;;;;;27.23;13.27;;;14.40;41.60;;;;;;5065082;28;20206;-75
2022/11/01 00:56:01;;;;;;;19.17;11.63;;;14.40;41.90;;;;;;5067747;28;20193;-75
2022/11/01 00:58:26;;;;;;;19.40;12.47;;;14.50;41.70;;;;;;5064525;28;20168;-75
2022/11/01 01:00:52;;;;;;;20.57;13.03;;;14.50;41.80;;;;;;5062518;28;20513;-76
2022/11/01 01:03:17;;;;;;;21.70;12.00;;;14.50;41.70;;;;;;5066930;28;20551;-75
2022/11/01 01:05:43;;;;;;;19.50;12.20;;;14.40;41.70;;;;;;5068703;28;20561;-75
2022/11/01 01:08:08;;;;;;;23.90;13.03;;;14.40;41.70;;;;;;5066841;28;20203;-73
2022/11/01 01:10:34;;;;;;;15.83;12.20;;;14.40;41.70;;;;;;5066460;28;20543;-74
2022/11/01 01:13:00;;;;;;;22.77;12.50;;;14.50;41.70;;;;;;5080931;28;20194;-75
2022/11/01 01:15:25;;;;;;;18.97;11.80;;;14.70;42.00;;;;;;5079724;28;20557;-75
2022/11/01 01:17:51;;;;;;;24.23;12.50;;;14.50;41.90;;;;;;5065988;28;20499;-74
2022/11/01 01:20:19;;;;;;;16.73;12.10;;;14.50;41.80;;;;;;5068867;28;20160;-75
2022/11/01 01:22:45;;;;;;;16.73;11.50;;;14.50;44.40;;;;;;5061196;28;20437;-75
2022/11/01 01:25:10;;;;;;;18.80;11.40;;;14.50;41.70;;;;;;5068697;28;20529;-74
2022/11/01 01:27:36;;;;;;;18.67;10.70;;;14.60;41.80;;;;;;5067558;28;20180;-75
2022/11/01 01:30:03;;;;;;;17.67;11.73;;;14.60;41.80;;;;;;5069688;28;20176;-74
2022/11/01 01:32:28;;;;;;;17.60;11.57;;;14.60;41.80;;;;;;5064903;28;20199;-75
2022/11/01 01:34:54;;;;;;;19.47;11.80;;;15.20;42.50;;;;;;5060318;28;20443;-76
2022/11/01 01:37:19;;;;;;;15.80;11.20;;;14.80;42.00;;;;;;5064703;28;20453;-74
2022/11/01 01:39:45;;;;;;;18.40;11.63;;;14.80;39.60;;;;;;5060472;28;20663;-74
2022/11/01 01:42:29;;;;;;;18.20;11.37;;;14.80;34.50;;;;;;5066067;28;20539;-74
2022/11/01 01:44:55;;;;;;;24.77;11.50;;;14.90;30.20;;;;;;5067814;28;20168;-75
2022/11/01 01:47:26;;;;;;;21.00;11.03;;;15.00;29.40;;;;;;5066062;28;21017;-74
2022/11/01 01:50:03;;;;;;;27.03;11.60;;;15.00;25.10;;;;;;5069365;28;20181;-75
2022/11/01 01:52:31;;;;;;;20.33;11.00;;;15.10;23.00;;;;;;5055096;28;20459;-75
2022/11/01 01:55:01;;;;;;;16.43;9.47;;;15.20;19.80;;;;;;5064412;28;20411;-73
2022/11/01 01:57:26;;;;;;;15.30;9.90;;;15.20;18.80;;;;;;5060071;28;20430;-75
2022/11/01 01:59:52;;;;;;;21.20;10.90;;;15.30;17.70;;;;;;5069336;28;20411;-76
2022/11/01 02:02:19;;;;;;;14.83;10.53;;;15.30;15.50;;;;;;5059638;28;20279;-76
2022/11/01 02:04:56;;;;;;;18.03;10.77;;;15.30;15.20;;;;;;5054596;28;20220;-74
2022/11/01 02:07:21;;;;;;;17.60;10.30;;;15.30;14.50;;;;;;5068177;28;20489;-73
2022/11/01 02:09:47;;;;;;;15.27;10.00;;;15.30;13.30;;;;;;5060881;28;20569;-74
2022/11/01 02:12:13;;;;;;;17.33;9.90;;;15.30;14.20;;;;;;5072890;28;20192;-74
2022/11/01 02:14:41;;;;;;;22.03;10.10;;;15.30;14.20;;;;;;5069287;28;20172;-74
2022/11/01 02:17:44;;;;;;;15.10;9.63;;;15.30;13.40;;;;;;5068400;28;20453;-74
2022/11/01 02:20:43;;;;;;;16.63;9.50;;;15.30;11.20;;;;;;5062875;28;20484;-75
2022/11/01 02:23:26;;;;;;;14.00;10.17;;;15.40;11.10;;;;;;5048232;28;20443;-74
2022/11/01 02:26:12;;;;;;;23.40;10.43;;;15.40;9.90;;;;;;5067779;28;20413;-74
2022/11/01 02:29:03;;;;;;;15.73;10.10;;;15.40;8.90;;;;;;5064307;28;20428;-75
2022/11/01 02:31:29;;;;;;;14.20;9.47;;;15.50;7.50;;;;;;5071610;28;20407;-74
2022/11/01 02:34:09;;;;;;;15.13;9.90;;;15.60;6.30;;;;;;5060768;28;20886;-74
2022/11/01 02:36:51;;;;;;;24.17;9.90;;;15.60;4.90;;;;;;5062055;28;20295;-73
2022/11/01 02:39:22;;;;;;;19.20;9.80;;;15.60;4.00;;;;;;5057718;28;20431;-75
2022/11/01 02:42:02;;;;;;;20.53;10.33;;;15.60;3.80;;;;;;5071687;28;20418;-76
2022/11/01 02:44:34;;;;;;;14.67;9.40;;;15.60;3.00;;;;;;5073870;28;20513;-76
2022/11/01 02:47:01;;;;;;;17.70;10.13;;;15.70;3.50;;;;;;5053423;28;20427;-75
2022/11/01 02:49:42;;;;;;;21.93;9.77;;;15.70;1.90;;;;;;5066811;28;20517;-75
2022/11/01 02:52:13;;;;;;;16.83;8.80;;;15.70;3.80;;;;;;5065233;28;20427;-73
2022/11/01 02:54:43;;;;;;;18.27;10.33;;;15.70;3.80;;;;;;5069973;28;20765;-76
2022/11/01 02:57:29;;;;;;;19.70;9.73;;;15.60;3.80;;;;;;5068266;28;20459;-74
2022/11/01 03:00:03;;;;;;;14.00;9.63;;;15.60;6.20;;;;;;5061879;28;20446;-75
2022/11/01 03:02:38;;;;;;;19.60;10.67;;;15.40;12.70;;;;;;5059377;28;20481;-75
2022/11/01 03:05:43;;;;;;;22.73;11.60;;;15.10;22.90;;;;;;5066119;28;20987;-75
2022/11/01 03:08:13;;;;;;;22.07;12.20;;;14.80;42.10;;;;;;5050844;28;20893;-74
2022/11/01 03:10:57;;;;;;;17.77;11.10;;;14.70;41.90;;;;;;5068534;28;20434;-74
2022/11/01 03:13:37;;;;;;;19.43;12.37;;;14.70;47.30;;;;;;5062342;28;20442;-73
2022/11/01 03:16:28;;;;;;;19.90;11.60;;;14.70;48.60;;;;;;5051055;28;20512;-75
2022/11/01 03:19:05;;;;;;;24.40;12.67;;;14.60;51.00;;;;;;5069270;28;20418;-74
2022/11/01 03:21:39;;;;;;;26.40;13.33;;;14.60;56.30;;;;;;5066964;28;20481;-75
2022/11/01 03:24:23;;;;;;;25.43;13.73;;;14.60;64.70;;;;;;5064768;28;20403;-75
2022/11/01 03:27:12;;;;;;;28.00;12.03;;;14.70;61.70;;;;;;5068324;28;20442;-74
2022/11/01 03:29:40;;;;;;;28.33;13.10;;;14.70;63.50;;;;;;5069521;28;20422;-72
2022/11/01 03:32:07;;;;;;;25.10;13.57;;;14.60;66.20;;;;;;5063281;28;20511;-74
2022/11/01 03:34:35;;;;;;;20.83;12.63;;;14.60;73.00;;;;;;5063995;28;20441;-73
2022/11/01 03:37:05;;;;;;;26.17;13.57;;;14.70;79.90;;;;;;5055558;28;20980;-75
2022/11/01 03:39:44;;;;;;;21.30;13.90;;;14.70;76.40;;;;;;5056137;28;20466;-74
2022/11/01 03:42:17;;;;;;;19.10;12.80;;;14.70;82.10;;;;;;5066578;28;20911;-75
2022/11/01 03:44:48;;;;;;;29.97;14.70;;;14.70;74.10;;;;;;5063416;28;20572;-73
2022/11/01 03:47:13;;;;;;;19.13;13.40;;;14.70;83.00;;;;;;5067137;28;20518;-73
2022/11/01 03:49:39;;;;;;;29.27;13.70;;;14.70;81.80;;;;;;5071411;28;20506;-76
2022/11/01 03:52:04;;;;;;;19.00;12.30;;;14.70;75.50;;;;;;5067172;28;20717;-75
2022/11/01 03:54:30;;;;;;;20.40;12.80;;;15.10;73.40;;;;;;5068695;28;20223;-73
2022/11/01 03:56:55;;;;;;;19.07;12.33;;;14.50;71.10;;;;;;5068487;28;20662;-74
2022/11/01 03:59:24;;;;;;;22.17;13.60;;;14.50;73.20;;;;;;5071740;28;20172;-75
2022/11/01 04:01:50;;;;;;;20.10;11.90;;;14.40;73.30;;;;;;5061916;28;20200;-75
2022/11/01 04:04:15;;;;;;;17.50;12.17;;;14.40;76.60;;;;;;5062878;28;20434;-75
2022/11/01 04:06:41;;;;;;;21.37;12.87;;;14.40;79.20;;;;;;5062019;28;20239;-74
2022/11/01 04:09:06;;;;;;;21.07;12.73;;;14.40;82.20;;;;;;5062706;28;20181;-73
2022/11/01 04:11:32;;;;;;;25.00;12.00;;;14.40;82.20;;;;;;5062700;28;20180;-74
2022/11/01 04:20:31;;;;;;;21.70;11.60;;;14.30;83.40;;;;;;5071249;28;20196;-76
2022/11/01 04:22:27;;;;;;;18.70;12.53;;;14.40;83.50;;;;;;5007367;28;20878;-75
2022/11/01 04:24:53;;;;;;;18.23;11.70;;;14.40;86.40;;;;;;5057294;28;20418;-75
2022/11/01 04:27:18;;;;;;;18.27;11.90;;;14.40;81.70;;;;;;5064461;28;20195;-75
2022/11/01 04:29:44;;;;;;;16.83;12.10;;;14.40;81.60;;;;;;5063955;28;20189;-75
2022/11/01 04:32:09;;;;;;;23.13;13.37;;;14.30;89.40;;;;;;5069983;28;20532;-75
2022/11/01 04:34:41;;;;;;;28.57;13.03;;;14.40;85.80;;;;;;5067007;28;20168;-75
2022/11/01 04:37:06;;;;;;;21.20;12.13;;;14.30;82.60;;;;;;5070695;28;20382;-75
2022/11/01 04:39:32;;;;;;;26.40;13.40;;;14.30;83.10;;;;;;5064682;28;20427;-75
2022/11/01 04:41:57;;;;;;;21.53;12.13;;;14.30;85.80;;;;;;5078611;28;20732;-74
2022/11/01 04:44:23;;;;;;;16.87;12.10;;;14.30;87.80;;;;;;5063980;28;20208;-76
2022/11/01 04:46:48;;;;;;;24.60;12.50;;;14.30;87.50;;;;;;5069594;28;20176;-75
2022/11/01 04:49:14;;;;;;;21.80;11.47;;;14.20;86.90;;;;;;5063284;28;20635;-75
2022/11/01 04:51:40;;;;;;;23.37;11.13;;;14.20;84.80;;;;;;5069184;28;20650;-75
2022/11/01 04:54:06;;;;;;;21.77;11.67;;;14.20;84.70;;;;;;5067942;28;20694;-74
2022/11/01 04:56:33;;;;;;;17.57;11.87;;;14.20;81.70;;;;;;5064400;28;21260;-75
2022/11/01 04:58:58;;;;;;;19.30;11.90;;;14.10;83.70;;;;;;5070359;28;20403;-76
2022/11/01 05:01:24;;;;;;;16.57;10.87;;;14.10;84.90;;;;;;5064940;28;21745;-75
2022/11/01 05:03:49;;;;;;;17.70;11.20;;;14.20;85.90;;;;;;5062355;28;20196;-75
2022/11/01 05:06:15;;;;;;;20.80;12.27;;;14.10;90.60;;;;;;5062868;28;20579;-74
2022/11/01 05:08:40;;;;;;;19.93;11.17;;;14.20;90.20;;;;;;5059142;28;20239;-73
2022/11/01 05:11:06;;;;;;;18.60;11.33;;;14.20;89.60;;;;;;5070015;28;20173;-75
2022/11/01 05:13:31;;;;;;;17.77;11.20;;;14.20;87.00;;;;;;5070938;28;20219;-75
2022/11/01 05:15:57;;;;;;;22.70;12.10;;;14.20;90.80;;;;;;5067163;28;20204;-76
2022/11/01 05:18:22;;;;;;;23.47;11.90;;;14.20;91.00;;;;;;5074620;28;20177;-75
2022/11/01 05:20:48;;;;;;;20.77;10.87;;;14.20;90.80;;;;;;5069525;28;20191;-74
2022/11/01 05:23:14;;;;;;;25.20;11.80;;;14.20;91.40;;;;;;5066751;28;20200;-75
2022/11/01 05:25:39;;;;;;;27.37;11.20;;;14.20;92.80;;;;;;5069374;28;20179;-75
2022/11/01 05:28:09;;;;;;;24.20;11.17;;;14.30;92.40;;;;;;5068395;28;20196;-75
2022/11/01 05:30:36;;;;;;;17.80;10.00;;;14.30;93.20;;;;;;5066054;28;20211;-74
2022/11/01 05:33:03;;;;;;;14.30;9.93;;;14.30;91.90;;;;;;5064224;28;20500;-75
2022/11/01 05:35:29;;;;;;;15.73;10.80;;;14.30;92.90;;;;;;5057299;28;20952;-75
2022/11/01 05:37:55;;;;;;;18.73;10.20;;;14.30;92.80;;;;;;5057992;28;20435;-74
2022/11/01 05:40:21;;;;;;;19.33;10.90;;;14.40;92.50;;;;;;5060632;28;20977;-75
2022/11/01 05:42:46;;;;;;;13.50;9.50;;;14.40;94.50;;;;;;5069564;28;20193;-76
2022/11/01 05:45:12;;;;;;;19.47;10.40;;;14.40;93.20;;;;;;5073676;28;20169;-74
2022/11/01 05:47:39;;;;;;;19.80;10.00;;;14.50;92.50;;;;;;5067069;28;20520;-74
2022/11/01 05:50:06;;;;;;;20.80;9.40;;;14.50;94.00;;;;;;5061848;28;20277;-74
2022/11/01 05:52:32;;;;;;;16.63;9.70;;;14.60;93.30;;;;;;5068259;28;20487;-74
2022/11/01 05:54:57;;;;;;;15.73;9.93;;;14.60;91.50;;;;;;5057050;28;20513;-74
2022/11/01 05:57:23;;;;;;;17.57;10.13;;;14.60;91.90;;;;;;5069524;28;20623;-75
2022/11/01 05:59:48;;;;;;;16.00;10.17;;;14.60;91.60;;;;;;5062485;28;20187;-74
2022/11/01 06:02:14;;;;;;;17.73;9.90;;;14.60;92.90;;;;;;5068828;28;20193;-74
2022/11/01 06:04:39;;;;;;;16.83;10.53;;;14.60;92.60;;;;;;5070810;28;20193;-74
2022/11/01 06:07:05;;;;;;;21.23;10.63;;;14.60;93.10;;;;;;5072676;28;20181;-75
2022/11/01 06:09:31;;;;;;;18.93;11.57;;;14.70;94.10;;;;;;5063128;28;20594;-74
2022/11/01 06:11:56;;;;;;;25.70;12.37;;;14.70;92.70;;;;;;5080171;28;20223;-76
2022/11/01 06:14:22;;;;;;;20.50;11.60;;;14.70;96.20;;;;;;5065461;28;20643;-74
2022/11/01 06:16:47;;;;;;;20.90;11.80;;;14.80;94.30;;;;;;5072283;28;20199;-74
2022/11/01 06:19:13;;;;;;;17.20;11.30;;;14.80;94.00;;;;;;5067021;28;20176;-75
2022/11/01 06:21:38;;;;;;;19.90;12.50;;;14.80;93.50;;;;;;5072907;28;20271;-74
2022/11/01 06:24:04;;;;;;;21.30;11.37;;;14.80;94.80;;;;;;5062943;28;20180;-75
2022/11/01 06:26:29;;;;;;;28.00;11.90;;;14.80;92.10;;;;;;5068203;28;20242;-75
2022/11/01 06:28:55;;;;;;;17.70;12.17;;;14.80;92.30;;;;;;5061835;28;20554;-76
2022/11/01 06:31:21;;;;;;;18.03;12.13;;;14.70;91.00;;;;;;5070894;28;20172;-75
2022/11/01 06:33:49;;;;;;;19.00;12.00;;;14.70;94.90;;;;;;5062617;28;20287;-75
2022/11/01 06:36:14;;;;;;;19.70;12.30;;;14.80;96.50;;;;;;5072739;28;20196;-74
2022/11/01 06:38:39;;;;;;;24.87;12.80;;;14.80;94.10;;;;;;5063990;28;20438;-75
2022/11/01 06:41:05;;;;;;;18.83;11.00;;;14.80;92.70;;;;;;5071719;28;20204;-74
2022/11/01 06:43:31;;;;;;;21.10;12.23;;;14.70;93.60;;;;;;5071313;28;20203;-75
2022/11/01 06:45:59;;;;;;;22.27;11.70;;;14.80;93.40;;;;;;5070589;28;20211;-75
2022/11/01 06:48:25;;;;;;;21.60;11.80;;;14.80;92.80;;;;;;5064271;28;20202;-75
2022/11/01 06:50:52;;;;;;;17.67;11.50;;;14.80;91.00;;;;;;5072500;28;20430;-76
2022/11/01 06:53:18;;;;;;;20.87;13.20;;;14.80;93.30;;;;;;5063757;28;20196;-74
2022/11/01 06:55:44;;;;;;;20.30;10.97;;;14.90;92.10;;;;;;5072336;28;20447;-74
2022/11/01 06:58:09;;;;;;;19.80;11.23;;;14.80;91.70;;;;;;5065091;28;20229;-75
2022/11/01 07:00:35;;;;;;;19.40;11.73;;;14.70;91.20;;;;;;5071881;28;20253;-75
2022/11/01 07:03:06;;;;;;;19.13;11.37;;;14.70;91.40;;;;;;5060898;28;20193;-75
2022/11/01 07:05:33;;;;;;;14.97;10.23;;;14.70;92.20;;;;;;5068512;28;20176;-75
2022/11/01 07:07:59;;;;;;;19.37;10.97;;;14.70;93.00;;;;;;5054604;28;20977;-75
2022/11/01 07:10:26;;;;;;;17.10;11.20;;;14.70;93.30;;;;;;5067954;28;20403;-74
2022/11/01 07:12:59;;;;;;;19.67;10.40;;;14.80;93.70;;;;;;5068210;28;20508;-75
2022/11/01 07:15:26;;;;;;;15.27;10.00;;;14.80;90.80;;;;;;5065713;28;21184;-74
2022/11/01 07:18:09;;;;;;;15.90;10.50;;;14.80;92.90;;;;;;5054269;28;20922;-74
2022/11/01 07:20:42;;;;;;;17.60;10.63;;;14.90;92.10;;;;;;5072030;28;20421;-74
2022/11/01 07:23:12;;;;;;;14.80;9.70;;;15.00;91.90;;;;;;5069616;28;20446;-74
2022/11/01 07:25:37;;;;;;;25.87;10.90;;;15.00;92.30;;;;;;5066659;28;20930;-75
2022/11/01 07:28:03;;;;;;;16.07;10.70;;;15.00;88.30;;;;;;5068118;28;20435;-74
2022/11/01 07:30:28;;;;;;;17.63;10.53;;;15.10;94.10;;;;;;5066471;28;20165;-75
2022/11/01 07:32:59;;;;;;;23.73;10.43;;;15.10;89.90;;;;;;5072427;28;20219;-74
2022/11/01 07:35:25;;;;;;;16.53;10.10;;;15.10;89.40;;;;;;5091562;28;20191;-75
2022/11/01 07:37:51;;;;;;;17.63;10.63;;;15.10;84.20;;;;;;5072068;28;20508;-75
2022/11/01 07:40:17;;;;;;;19.17;11.10;;;15.10;83.20;;;;;;5068352;28;20882;-75
2022/11/01 07:42:44;;;;;;;19.30;11.43;;;15.10;85.10;;;;;;5062489;28;20192;-75
2022/11/01 07:45:11;;;;;;;18.43;10.90;;;15.20;85.70;;;;;;5078762;28;20776;-75
2022/11/01 07:47:37;;;;;;;23.37;10.13;;;15.10;84.70;;;;;;5066556;28;20782;-74
2022/11/01 07:50:04;;;;;;;21.37;10.43;;;15.20;88.10;;;;;;5071344;28;20472;-75
2022/11/01 07:52:30;;;;;;;16.47;10.30;;;15.40;90.50;;;;;;5065125;28;20829;-76
2022/11/01 07:54:56;;;;;;;16.20;9.83;;;15.60;82.10;;;;;;5070324;28;20422;-77
2022/11/01 07:57:21;;;;;;;16.43;9.83;;;15.70;82.60;;;;;;5071242;28;20200;-74
2022/11/01 07:59:47;;;;;;;19.27;9.30;;;15.60;79.80;;;;;;5066160;28;20238;-75
2022/11/01 08:02:12;;;;;;;18.77;9.03;;;15.70;77.80;;;;;;5066770;28;20188;-75
2022/11/01 08:04:38;;;;;;;12.60;8.60;;;15.70;75.50;;;;;;5056516;28;20286;-75
2022/11/01 08:07:03;;;;;;;15.60;9.50;;;15.80;67.50;;;;;;5057381;28;20272;-75
2022/11/01 08:09:29;;;;;;;14.87;8.67;;;15.90;61.80;;;;;;5061957;28;20220;-75
2022/11/01 08:11:54;;;;;;;13.77;7.60;;;15.90;59.50;;;;;;5054782;28;20261;-78
2022/11/01 08:14:20;;;;;;;9.37;6.30;;;16.30;85.20;;;;;;5066400;28;20177;-78
2022/11/01 08:16:54;;;;;;;9.20;6.10;;;16.70;55.40;;;;;;5067469;28;20207;-78
2022/11/01 08:19:20;;;;;;;10.87;6.17;;;16.90;43.80;;;;;;5070539;28;20245;-78
2022/11/01 08:21:46;;;;;;;9.57;5.87;;;17.20;44.00;;;;;;5071232;28;20410;-78
2022/11/01 08:24:11;;;;;;;8.47;5.63;;;17.40;32.30;;;;;;5059842;28;20476;-78
2022/11/01 08:26:37;;;;;;;7.43;5.90;;;17.50;29.00;;;;;;5049320;28;20278;-75
2022/11/01 08:29:02;;;;;;;7.97;5.80;;;17.60;24.30;;;;;;5055767;28;20176;-76
2022/11/01 08:31:28;;;;;;;13.10;6.97;;;17.60;26.40;;;;;;5067038;28;20179;-77
2022/11/01 08:33:53;;;;;;;15.23;6.20;;;17.60;24.70;;;;;;5071090;28;20197;-77
2022/11/01 08:36:20;;;;;;;9.47;5.80;;;17.40;15.90;;;;;;5078891;28;20204;-76
2022/11/01 08:38:46;;;;;;;8.83;5.30;;;17.40;22.90;;;;;;5071078;28;20164;-76
2022/11/01 08:41:11;;;;;;;7.53;5.10;;;17.50;27.40;;;;;;5072380;28;20923;-76
2022/11/01 08:43:37;;;;;;;9.50;5.10;;;17.50;20.00;;;;;;5077092;28;20195;-76
2022/11/01 08:46:02;;;;;;;6.90;4.73;;;17.50;25.90;;;;;;5063000;28;20176;-76
2022/11/01 08:48:28;;;;;;;7.17;5.40;;;17.60;26.30;;;;;;5066005;28;20256;-76
2022/11/01 08:50:53;;;;;;;7.90;6.17;;;17.70;24.90;;;;;;5070155;28;20866;-76
2022/11/01 08:53:19;;;;;;;7.20;5.40;;;17.70;21.70;;;;;;5066682;28;20607;-76
2022/11/01 08:55:44;;;;;;;7.80;5.53;;;17.80;24.00;;;;;;5061697;28;20471;-76
2022/11/01 08:58:10;;;;;;;8.73;5.40;;;17.80;19.00;;;;;;5069099;28;20177;-76
2022/11/01 09:00:36;;;;;;;9.37;5.23;;;17.90;22.00;;;;;;5068672;28;20511;-76
2022/11/01 09:03:02;;;;;;;6.37;5.40;;;18.00;23.20;;;;;;5053751;28;20211;-77
2022/11/01 09:05:30;;;;;;;6.10;4.90;;;18.10;27.80;;;;;;5065955;28;20671;-77
2022/11/01 09:07:57;;;;;;;7.47;4.80;;;18.80;21.30;;;;;;5063986;28;20454;-76
2022/11/01 09:10:23;;;;;;;6.13;4.20;;;18.40;18.60;;;;;;5061156;28;20504;-76
2022/11/01 09:12:49;;;;;;;5.53;3.60;;;18.50;14.80;;;;;;5071339;28;20434;-77
2022/11/01 09:15:14;;;;;;;8.03;3.60;;;18.30;5.20;;;;;;5056555;28;20798;-77
2022/11/01 09:17:40;;;;;;;8.77;4.10;;;18.40;11.50;;;;;;5060823;28;20587;-76
2022/11/01 09:20:08;;;;;;;6.23;3.00;;;18.80;15.80;;;;;;5069327;28;20168;-76
2022/11/01 09:22:36;;;;;;;5.20;3.40;;;18.30;4.30;;;;;;5061899;28;20186;-77
2022/11/01 09:25:02;;;;;;;5.70;2.90;;;18.10;15.20;;;;;;5055498;28;20774;-76
2022/11/01 09:27:28;;;;;;;6.07;3.27;;;17.90;9.60;;;;;;5064081;28;20435;-77
2022/11/01 09:29:53;;;;;;;4.07;2.63;;;18.00;11.00;;;;;;5062022;28;20492;-79
2022/11/01 09:32:20;;;;;;;4.50;2.70;;;18.10;6.90;;;;;;5058206;28;20192;-75
2022/11/01 09:34:47;;;;;;;4.97;3.07;;;18.50;12.40;;;;;;5060886;28;20179;-77
2022/11/01 09:37:14;;;;;;;5.30;3.10;;;18.80;1.00;;;;;;5062542;28;20462;-76
2022/11/01 09:39:39;;;;;;;5.70;2.40;;;19.40;1.00;;;;;;5061634;28;20467;-76
2022/11/01 09:42:13;;;;;;;4.73;2.50;;;20.50;1.00;;;;;;5060379;28;20517;-75
2022/11/01 09:44:44;;;;;;;4.20;2.60;;;21.90;1.00;;;;;;5062536;28;20675;-76
2022/11/01 09:47:22;;;;;;;8.03;3.27;;;23.00;1.00;;;;;;5062777;28;20431;-76
2022/11/01 09:49:56;;;;;;;6.73;2.67;;;23.10;1.00;;;;;;5062654;28;20972;-78
2022/11/01 09:52:23;;;;;;;13.23;3.10;;;22.60;1.00;;;;;;5061555;28;20473;-77
2022/11/01 09:54:49;;;;;;;5.17;2.90;;;23.00;1.00;;;;;;5064113;28;20438;-76
2022/11/01 09:57:34;;;;;;;6.33;2.50;;;23.50;1.00;;;;;;5064176;28;20849;-77
2022/11/01 10:00:13;;;;;;;8.80;2.90;;;23.80;1.00;;;;;;5054206;28;20454;-77
2022/11/01 10:03:04;;;;;;;7.40;2.93;;;24.40;1.00;;;;;;5066441;28;20500;-80
2022/11/01 10:05:57;;;;;;;5.27;2.67;;;23.80;1.00;;;;;;5052302;28;20422;-77
2022/11/01 10:08:47;;;;;;;6.17;2.40;;;22.40;1.00;;;;;;5062169;28;20508;-77
2022/11/01 10:11:24;;;;;;;7.43;3.47;;;21.50;1.00;;;;;;5063656;28;20484;-77
2022/11/01 10:14:23;;;;;;;5.73;2.90;;;21.40;1.00;;;;;;5057789;28;21006;-78
2022/11/01 10:17:05;;;;;;;8.00;2.77;;;21.40;1.00;;;;;;5065017;28;20477;-78
2022/11/01 10:19:34;;;;;;;7.63;4.07;;;21.30;1.00;;;;;;5061243;28;20438;-76
2022/11/01 10:22:25;;;;;;;11.07;4.10;;;21.20;1.00;;;;;;5066435;28;20457;-76
2022/11/01 10:25:01;;;;;;;10.03;3.60;;;21.60;1.00;;;;;;5060552;28;20447;-77
2022/11/01 10:27:41;;;;;;;8.23;3.63;;;23.50;1.00;;;;;;5053689;28;20861;-78
2022/11/01 10:30:16;;;;;;;5.10;2.80;;;25.30;1.00;;;;;;5058738;28;21081;-76
2022/11/01 10:32:53;;;;;;;6.80;3.80;;;27.10;1.00;;;;;;5066003;28;20856;-77
2022/11/01 10:35:42;;;;;;;6.17;2.90;;;28.20;1.00;;;;;;5063839;28;20483;-77
2022/11/01 10:38:22;;;;;;;13.00;2.53;;;27.70;1.00;;;;;;5062702;28;20402;-78
2022/11/01 10:41:02;;;;;;;5.40;2.47;;;27.00;1.00;;;;;;5063381;28;20446;-77
2022/11/01 10:43:29;;;;;;;6.20;2.43;;;26.20;1.00;;;;;;5063548;28;20545;-77
2022/11/01 10:45:57;;;;;;;8.50;2.30;;;25.60;1.00;;;;;;5057637;28;20484;-77
2022/11/01 10:48:30;;;;;;;5.43;2.30;;;25.40;1.00;;;;;;5067526;28;20427;-75
2022/11/01 10:50:59;;;;;;;4.57;2.37;;;25.30;1.00;;;;;;5062111;28;20452;-77
2022/11/01 10:53:27;;;;;;;5.70;2.60;;;25.30;1.00;;;;;;5067142;28;20450;-76
2022/11/01 10:55:57;;;;;;;5.40;2.17;;;25.70;1.00;;;;;;5069007;28;20457;-76
2022/11/01 10:58:45;;;;;;;6.33;2.07;;;25.70;1.00;;;;;;5065944;28;20530;-77
2022/11/01 11:01:17;;;;;;;3.90;1.90;;;26.30;1.00;;;;;;5057673;28;20426;-77
2022/11/01 11:03:44;;;;;;;3.70;1.73;;;26.90;1.00;;;;;;5067417;28;20929;-76
2022/11/01 11:06:12;;;;;;;5.40;2.30;;;27.80;1.00;;;;;;5060678;28;20434;-76
2022/11/01 11:08:39;;;;;;;5.30;2.23;;;28.10;1.00;;;;;;5062576;28;20522;-77
2022/11/01 11:11:14;;;;;;;5.93;2.10;;;28.40;1.00;;;;;;5069055;28;20183;-77
2022/11/01 11:13:46;;;;;;;4.83;2.20;;;30.40;1.00;;;;;;5068660;28;20244;-78
2022/11/01 11:16:35;;;;;;;4.75;2.03;;;31.70;1.00;;;;;;5062727;28;20581;-76
2022/11/01 11:19:14;;;;;;;4.57;1.90;;;31.70;1.00;;;;;;5064003;28;20245;-77
2022/11/01 11:21:43;;;;;;;4.50;1.85;;;32.00;1.00;;;;;;5064988;28;20168;-79
2022/11/01 11:24:18;;;;;;;4.70;1.80;;;32.20;1.00;;;;;;5064733;28;20202;-77
2022/11/01 11:26:44;;;;;;;7.20;1.90;;;31.40;1.00;;;;;;5063903;28;20180;-77
2022/11/01 11:29:34;;;;;;;6.40;1.85;;;30.70;1.00;;;;;;5067671;28;20184;-77
2022/11/01 11:32:02;;;;;;;4.85;2.20;;;30.70;1.00;;;;;;5062529;28;20227;-77
2022/11/01 11:34:33;;;;;;;8.63;2.58;;;30.70;1.00;;;;;;5062955;28;20655;-77
2022/11/01 11:37:04;;;;;;;6.88;2.20;;;31.50;1.00;;;;;;5062820;28;20295;-77
2022/11/01 11:39:34;;;;;;;5.80;2.40;;;32.40;1.00;;;;;;5064611;28;20173;-77
2022/11/01 11:42:10;;;;;;;5.35;2.50;;;32.70;1.00;;;;;;5065281;28;20716;-77
2022/11/01 11:44:44;;;;;;;3.65;1.98;;;32.60;1.00;;;;;;5067623;28;20176;-77
2022/11/01 11:47:23;;;;;;;5.53;2.42;;;31.10;1.00;;;;;;5070890;28;20265;-77
2022/11/01 11:49:53;;;;;;;4.35;2.10;;;31.50;1.00;;;;;;5066643;28;20519;-77
2022/11/01 11:52:38;;;;;;;6.13;2.20;;;31.10;1.00;;;;;;5063836;28;20318;-76
2022/11/01 11:55:06;;;;;;;8.25;2.70;;;31.40;1.00;;;;;;5058312;28;20195;-77
2022/11/01 11:57:33;;;;;;;5.75;2.42;;;31.60;1.00;;;;;;5064541;28;20185;-77
2022/11/01 12:00:01;;;;;;;5.47;2.38;;;31.10;1.00;;;;;;5064784;28;20168;-77
2022/11/01 12:02:34;;;;;;;4.78;1.60;;;31.50;1.00;;;;;;5067560;28;20233;-77
2022/11/01 12:05:02;;;;;;;5.15;1.80;;;33.10;1.00;;;;;;5066358;28;20554;-77
2022/11/01 12:07:31;;;;;;;5.45;1.60;;;33.90;1.00;;;;;;5066119;28;20180;-77
2022/11/01 12:10:03;;;;;;;5.38;2.13;;;32.80;1.00;;;;;;5066878;28;20231;-78
2022/11/01 12:12:32;;;;;;;4.95;1.88;;;32.60;1.00;;;;;;5070074;28;20231;-77
2022/11/01 12:14:59;;;;;;;5.32;2.10;;;32.80;1.00;;;;;;5064827;28;20180;-77
2022/11/01 12:17:41;;;;;;;8.68;3.30;;;32.30;1.00;;;;;;5061061;28;20196;-77
2022/11/01 12:20:23;;;;;;;7.05;2.85;;;32.50;1.00;;;;;;5063813;28;20180;-78
2022/11/01 12:23:15;;;;;;;9.43;3.13;;;31.90;1.00;;;;;;5060343;28;20744;-78
2022/11/01 12:25:44;;;;;;;8.30;2.40;;;31.60;1.00;;;;;;5061996;28;20180;-77
2022/11/01 12:28:34;;;;;;;7.63;2.55;;;31.10;1.00;;;;;;5071245;28;20683;-77
2022/11/01 12:31:07;;;;;;;6.07;1.90;;;31.80;1.00;;;;;;5063290;28;20266;-78
2022/11/01 12:33:40;;;;;;;5.15;1.58;;;32.10;1.00;;;;;;5061334;28;20700;-78
2022/11/01 12:36:07;;;;;;;5.18;1.70;;;32.60;1.00;;;;;;5059756;28;20196;-78
2022/11/01 12:38:45;;;;;;;6.72;1.67;;;33.50;1.00;;;;;;5056190;28;20180;-78
2022/11/01 12:41:18;;;;;;;6.00;1.70;;;33.00;1.00;;;;;;5056840;28;20539;-77
2022/11/01 12:43:56;;;;;;;7.93;1.55;;;32.80;1.00;;;;;;5067114;28;20222;-77
2022/11/01 12:46:28;;;;;;;3.63;1.60;;;32.30;1.00;;;;;;5058120;28;20570;-77
2022/11/01 12:49:02;;;;;;;4.68;1.95;;;32.80;1.00;;;;;;5067232;28;21505;-78
2022/11/01 12:51:31;;;;;;;5.10;1.92;;;32.80;1.00;;;;;;5058992;28;20199;-78
2022/11/01 12:54:12;;;;;;;7.53;1.58;;;31.80;1.00;;;;;;5064761;28;20203;-78
2022/11/01 12:56:38;;;;;;;6.20;1.80;;;31.00;1.00;;;;;;5063801;28;20291;-78